Terminal Aerodrome Forecast
Issued by NWS

Current Version | Previous Version | Text Only | Print | Product List | Glossary Off
Versions: 1 2 3 4 5 6 7 8 9 10 11 12 13 14 15 16 17 18

000
FTUS41 KILN 221700
TAFLCK
TAF
KLCK 221726Z 2218/2318 29010G16KT P6SM VCSH BKN060
     FM222000 32010KT P6SM SCT060
     FM230000 VRB03KT P6SM SCT250
     FM231400 15006KT P6SM SCT200=

USA.gov is the U.S. government's official web portal to all federal, state and local government web resources and services.